Burnsville, Minnesota
Current Conditions -  °F | °C
As of 10:53 PM on Monday 20 Oct 2014 (Local Time) from KMSP Reporting Station
Clear Clear  
Wind Chill: 46°   Ceiling: Unl
Heat Index: 48°   Visibility: 10mi
Dew Point: 39°   Wind: 5mph
Humidity: 71%   Direction: 40°NE
Pressure: 30.09"   Gusts: NA
Location:  44.77°N, 93.27°W
Report Text: KMSP 210353Z 04004KT 10SM CLR 09/04 A3009 RMK AO2 SLP191 T00890039
Loading
Personal Weather Stations






























Interactive Weather Map
Tropical Storm Tracking
New forecast layout! Learn more

10-Day Weather Forecast

Advertisements
Track Severe Weather on mobile